createdAt,value
2022-08-28T00:05:01.877Z,98719.69
2022-08-28T00:10:15.069Z,98716.23
2022-08-28T00:15:24.943Z,98711.52
2022-08-28T00:20:33.884Z,98712.14
2022-08-28T00:25:41.000Z,98715.95
2022-08-28T00:30:50.865Z,98711.30
2022-08-28T00:35:58.921Z,98715.05
2022-08-28T00:41:06.090Z,98706.95
2022-08-28T00:46:17.012Z,98704.55
2022-08-28T00:51:41.882Z,98696.09
2022-08-28T00:56:49.820Z,98698.63
2022-08-28T01:01:59.531Z,98703.51
2022-08-28T01:07:10.049Z,98706.05
2022-08-28T01:12:19.617Z,98696.06
2022-08-28T01:17:29.687Z,98691.69
2022-08-28T01:22:41.704Z,98690.89
2022-08-28T01:27:48.740Z,98696.58
2022-08-28T01:32:57.173Z,98703.51
2022-08-28T01:38:05.365Z,98706.40
2022-08-28T01:43:15.024Z,98702.51
2022-08-28T01:48:23.902Z,98707.65
2022-08-28T01:53:33.109Z,98710.69
2022-08-28T01:58:42.426Z,98706.11
2022-08-28T02:03:53.157Z,98706.46
2022-08-28T02:09:01.010Z,98717.88
2022-08-28T02:14:07.974Z,98721.17
2022-08-28T02:19:15.211Z,98726.92
2022-08-28T02:24:22.728Z,98729.45
2022-08-28T02:29:30.207Z,98726.87
2022-08-28T02:34:37.646Z,98722.56
2022-08-28T02:39:44.960Z,98726.48
2022-08-28T02:44:51.960Z,98732.85
2022-08-28T02:49:59.178Z,98728.23
2022-08-28T02:55:07.894Z,98730.71
2022-08-28T03:00:20.269Z,98734.40
2022-08-28T03:05:27.757Z,98733.12
2022-08-28T03:10:35.576Z,98736.31
2022-08-28T03:15:43.753Z,98732.98
2022-08-28T03:20:52.847Z,98727.44
2022-08-28T03:26:02.406Z,98732.13
2022-08-28T03:31:11.402Z,98730.69
2022-08-28T03:36:22.837Z,98731.73
2022-08-28T03:41:32.322Z,98729.80
2022-08-28T03:46:40.123Z,98735.63
2022-08-28T03:51:47.025Z,98752.02
2022-08-28T03:56:54.526Z,98756.61
2022-08-28T04:02:01.434Z,98765.74
2022-08-28T04:07:08.847Z,98779.23
2022-08-28T04:12:16.256Z,98787.31
2022-08-28T04:17:23.376Z,98787.90
2022-08-28T04:22:31.055Z,98787.94
2022-08-28T04:27:38.514Z,98792.12
2022-08-28T04:32:47.945Z,98794.09
2022-08-28T04:37:58.749Z,98789.64
2022-08-28T04:43:06.138Z,98787.77
2022-08-28T04:48:14.810Z,98798.48
2022-08-28T04:53:22.454Z,98796.84
2022-08-28T04:58:30.718Z,98797.88
2022-08-28T05:03:38.133Z,98800.60
2022-08-28T05:08:45.606Z,98796.64
2022-08-28T05:13:54.491Z,98792.88
2022-08-28T05:19:03.660Z,98795.04
2022-08-28T05:24:10.962Z,98797.42
2022-08-28T05:29:18.491Z,98801.40
2022-08-28T05:34:25.460Z,98815.97
2022-08-28T05:39:32.554Z,98808.01
2022-08-28T05:44:39.926Z,98810.67
2022-08-28T05:49:47.119Z,98803.14
2022-08-28T05:54:54.290Z,98804.25
2022-08-28T06:00:02.387Z,98803.14
2022-08-28T06:05:13.048Z,98799.21
2022-08-28T06:10:20.979Z,98805.06
2022-08-28T06:15:28.339Z,98806.50
2022-08-28T06:20:41.503Z,98799.92
2022-08-28T06:25:51.573Z,98797.36
2022-08-28T06:31:22.935Z,98794.86
2022-08-28T06:36:27.528Z,98795.19
2022-08-28T06:41:36.870Z,98786.21
2022-08-28T06:46:44.411Z,98784.91
2022-08-28T06:51:51.840Z,98794.84
2022-08-28T06:56:58.908Z,98799.65
2022-08-28T07:02:09.032Z,98792.48
2022-08-28T07:07:31.512Z,98790.92
2022-08-28T07:12:40.474Z,98782.99
2022-08-28T07:17:47.330Z,98775.25
2022-08-28T07:22:59.481Z,98782.30
2022-08-28T07:28:07.117Z,98781.71
2022-08-28T07:33:14.635Z,98774.99
2022-08-28T07:38:22.125Z,98775.05
2022-08-28T07:43:47.038Z,98783.05
2022-08-28T07:48:54.448Z,98787.48
2022-08-28T07:54:02.026Z,98786.75
2022-08-28T07:59:10.662Z,98789.34
2022-08-28T08:04:20.075Z,98785.63
2022-08-28T08:09:28.637Z,98785.10
2022-08-28T08:14:36.416Z,98784.92
2022-08-28T08:19:43.721Z,98783.58
2022-08-28T08:24:50.711Z,98784.81
2022-08-28T08:29:57.656Z,98785.67
2022-08-28T08:35:05.140Z,98787.37
2022-08-28T08:40:19.458Z,98789.48
2022-08-28T08:45:29.623Z,98791.10
2022-08-28T08:50:38.873Z,98797.55
2022-08-28T08:55:50.236Z,98799.21
2022-08-28T09:01:03.758Z,98805.64
2022-08-28T09:06:22.696Z,98812.16
2022-08-28T09:11:45.910Z,98811.71
2022-08-28T09:16:59.462Z,98812.52
2022-08-28T09:22:06.760Z,98814.02
2022-08-28T09:27:25.745Z,98816.11
2022-08-28T09:32:37.223Z,98824.50
2022-08-28T09:37:45.180Z,98825.63
2022-08-28T09:43:26.178Z,98832.18
2022-08-28T09:48:39.169Z,98838.66
2022-08-28T09:54:02.955Z,98832.88
2022-08-28T09:59:13.537Z,98831.59
2022-08-28T10:04:33.495Z,98829.33
2022-08-28T10:09:49.558Z,98831.98
2022-08-28T10:15:05.560Z,98825.59
2022-08-28T10:20:15.162Z,98824.35
2022-08-28T10:25:36.999Z,98831.26
2022-08-28T10:31:01.472Z,98828.55
2022-08-28T10:36:28.794Z,98828.36
2022-08-28T10:41:47.300Z,98826.21
2022-08-28T10:46:58.543Z,98825.37
2022-08-28T10:52:10.093Z,98827.67
2022-08-28T10:57:39.482Z,98829.73
2022-08-28T11:02:51.705Z,98826.73
2022-08-28T11:08:04.351Z,98829.45
2022-08-28T11:13:12.461Z,98825.55
2022-08-28T11:19:00.906Z,98819.70
2022-08-28T11:24:12.064Z,98820.88
2022-08-28T11:29:46.425Z,98815.45
2022-08-28T11:35:04.911Z,98817.44
2022-08-28T11:40:21.658Z,98814.34
2022-08-28T11:46:13.195Z,98808.70
2022-08-28T11:51:41.197Z,98800.77
2022-08-28T11:57:03.764Z,98800.89
2022-08-28T12:02:43.930Z,98803.69
2022-08-28T12:07:53.262Z,98810.38
2022-08-28T12:13:02.623Z,98810.80
2022-08-28T12:18:36.733Z,98813.83
2022-08-28T12:23:46.931Z,98812.02
2022-08-28T12:28:56.864Z,98812.54
2022-08-28T12:34:10.839Z,98809.77
2022-08-28T12:39:20.508Z,98809.48
2022-08-28T12:44:29.837Z,98805.30
2022-08-28T12:49:39.175Z,98800.02
2022-08-28T12:54:47.752Z,98793.72
2022-08-28T12:59:56.384Z,98788.01
2022-08-28T13:05:07.373Z,98784.83
2022-08-28T13:10:23.122Z,98777.29
2022-08-28T13:15:58.767Z,98770.89
2022-08-28T13:21:32.801Z,98764.42
2022-08-28T13:26:40.706Z,98755.13
2022-08-28T13:31:56.355Z,98752.31
2022-08-28T13:37:02.847Z,98755.61
2022-08-28T13:42:17.065Z,98758.24
2022-08-28T13:47:24.422Z,98765.90
2022-08-28T13:52:31.620Z,98765.55
2022-08-28T13:57:38.833Z,98762.65
2022-08-28T14:03:03.525Z,98757.17
2022-08-28T14:08:10.579Z,98759.67
2022-08-28T14:13:19.162Z,98763.89
2022-08-28T14:18:28.275Z,98766.36
2022-08-28T14:23:35.721Z,98771.58
2022-08-28T14:28:42.937Z,98770.02
2022-08-28T14:33:50.057Z,98773.20
2022-08-28T14:39:01.752Z,98783.33
2022-08-28T14:44:11.208Z,98787.12
2022-08-28T14:49:20.521Z,98792.61
2022-08-28T14:54:30.723Z,98787.90
2022-08-28T14:59:37.675Z,98791.68
2022-08-28T15:04:44.674Z,98791.05
2022-08-28T15:09:51.759Z,98794.55
2022-08-28T15:14:58.930Z,98816.39
2022-08-28T15:20:08.009Z,98831.66
2022-08-28T15:25:14.981Z,98841.42
2022-08-28T15:30:22.294Z,98848.74
2022-08-28T15:35:29.215Z,98858.58
2022-08-28T15:40:54.522Z,98854.30
2022-08-28T15:46:01.576Z,98871.16
2022-08-28T15:51:08.971Z,98875.08
2022-08-28T15:56:16.494Z,98872.92
2022-08-28T16:01:24.502Z,98885.52
2022-08-28T16:06:31.875Z,98890.45
2022-08-28T16:11:41.159Z,98894.55
2022-08-28T16:16:50.829Z,98885.95
2022-08-28T16:21:57.993Z,98881.02
2022-08-28T16:27:06.439Z,98890.14
2022-08-28T16:32:18.232Z,98890.61
2022-08-28T16:37:37.731Z,98882.66
2022-08-28T16:42:51.695Z,98879.77
2022-08-28T16:47:59.275Z,98876.05
2022-08-28T16:53:07.232Z,98874.16
2022-08-28T16:58:17.007Z,98874.58
2022-08-28T17:03:27.031Z,98879.55
2022-08-28T17:08:34.301Z,98872.69
2022-08-28T17:13:41.481Z,98872.44
2022-08-28T17:18:52.097Z,98872.94
2022-08-28T17:24:00.324Z,98877.46
2022-08-28T17:29:07.350Z,98880.14
2022-08-28T17:34:14.454Z,98884.18
2022-08-28T17:39:22.619Z,98890.11
2022-08-28T17:44:29.709Z,98895.52
2022-08-28T17:49:36.795Z,98906.55
2022-08-28T17:54:44.096Z,98914.46
2022-08-28T17:59:51.005Z,98916.38
2022-08-28T18:04:58.811Z,98920.71
2022-08-28T18:10:11.974Z,98924.95
2022-08-28T18:15:19.191Z,98927.20
2022-08-28T18:20:27.079Z,98931.20
2022-08-28T18:25:48.651Z,98935.60
2022-08-28T18:30:58.245Z,98946.24
2022-08-28T18:36:15.043Z,98952.98
2022-08-28T18:41:30.731Z,98953.96
2022-08-28T18:46:50.090Z,98950.98
2022-08-28T18:51:57.376Z,98950.18
2022-08-28T18:57:05.744Z,98951.18
2022-08-28T19:02:13.093Z,98958.20
2022-08-28T19:07:20.345Z,98961.58
2022-08-28T19:12:28.099Z,98961.71
2022-08-28T19:17:36.000Z,98968.13
2022-08-28T19:22:43.752Z,98969.30
2022-08-28T19:27:51.203Z,98974.45
2022-08-28T19:33:03.002Z,98976.64
2022-08-28T19:38:10.157Z,98977.05
2022-08-28T19:43:17.771Z,98973.67
2022-08-28T19:48:25.251Z,98980.00
2022-08-28T19:53:32.970Z,98981.48
2022-08-28T19:58:41.233Z,98981.02
2022-08-28T20:03:48.800Z,98979.65
2022-08-28T20:08:56.198Z,98981.02
2022-08-28T20:14:05.501Z,98979.36
2022-08-28T20:19:13.834Z,98979.38
2022-08-28T20:24:24.273Z,98983.15
2022-08-28T20:29:31.678Z,98990.66
2022-08-28T20:34:43.850Z,98986.31
2022-08-28T20:39:52.438Z,98987.84
2022-08-28T20:45:00.387Z,98988.58
2022-08-28T20:50:09.345Z,98989.35
2022-08-28T20:55:17.152Z,98992.06
2022-08-28T21:00:25.255Z,98996.66
2022-08-28T21:05:32.857Z,98994.81
2022-08-28T21:10:42.182Z,98997.62
2022-08-28T21:15:49.205Z,99000.09
2022-08-28T21:20:56.378Z,99001.48
2022-08-28T21:26:03.722Z,99004.27
2022-08-28T21:31:13.821Z,99006.11
2022-08-28T21:36:22.571Z,99008.13
2022-08-28T21:41:29.743Z,99006.41
2022-08-28T21:46:37.306Z,99013.11
2022-08-28T21:51:44.674Z,99013.19
2022-08-28T21:56:58.508Z,99014.05
2022-08-28T22:02:06.872Z,99017.95
2022-08-28T22:07:14.262Z,99015.02
2022-08-28T22:12:21.669Z,99012.77
2022-08-28T22:17:29.073Z,99008.20
2022-08-28T22:22:54.037Z,99009.80
2022-08-28T22:28:01.694Z,99010.34
2022-08-28T22:33:11.057Z,99019.45
2022-08-28T22:38:18.472Z,99020.36
2022-08-28T22:43:26.249Z,99027.41
2022-08-28T22:48:33.553Z,99028.15
2022-08-28T22:53:41.923Z,99037.92
2022-08-28T22:58:48.956Z,99045.15
2022-08-28T23:03:56.225Z,99047.12
2022-08-28T23:09:03.541Z,99048.48
2022-08-28T23:14:10.975Z,99054.48
2022-08-28T23:19:18.626Z,99057.92
2022-08-28T23:24:25.755Z,99056.94
2022-08-28T23:29:33.612Z,99061.05
2022-08-28T23:34:40.510Z,99060.04
2022-08-28T23:39:47.578Z,99058.11
2022-08-28T23:44:54.782Z,99055.92
2022-08-28T23:50:01.886Z,99054.52
2022-08-28T23:55:12.516Z,99055.66
